Für Piloten

Informationen für Piloten zum Flugplatz Borken-Hoxfeld
Hier findest Du alle relevanten Informationen, die Du als Pilot benötigst, um Borken-Hoxfeld anzufliegen.

Flugplatz: Borken-Hoxfeld ICAO-Code: EDLY
Borken-Hoxfeld Info: 122,930 Mhz
GAFOR Gebiet: 32
Platzrunde: Motorflug; -> Südplatzrunde; Segelflug; -> Nordplatzrunde;
Landegebühr: z.Zt. 5,00 Euro
Platzhöhe: 48m üMSL
Pisten: 12/30 – 740 m x 30 m, GRAS
Betriebszeiten: PPR (in den Sommermonaten Mittagspause beachten)

 

Wetterforecast:

Available data for EDDL from the past 2 hours
DUESSELDORF
Metar
EDDL 271450Z 32010KT CAVOK 25/10 Q1031 NOSIG

14:50 UTC

Wind: 320° 10kt

Visibility:

Sky:

Temp: 25 deg C / 77 deg F

Dewpoint: 10 deg C / 50 deg F

Pressure: 1031 hPa

TAF
TAF EDDL 271100Z 2712/2818 30005KT CAVOK BECMG 2712/2715 36010KT BECMG 2723/2803 02005KT BECMG 2807/2810 02011KT

Alle obigen Informationen ersetzen nicht die vorgeschriebene, persönliche Flugvorbereitung.